Time;durP1;ratioP1;P1;durP2;ratioP2;P2;SDS_P1;SDS_P2;PMS_P1;PMS_P2;Temp;Humidity;BMP_temperature;BMP_pressure;BME280_temperature;BME280_humidity;BME280_pressure;Samples;Min_cycle;Max_cycle;Signal;HPM_P1;HPM_P2
2023/11/09 00:02:24;;;;;;;12.45;7.40;;;;;;;2.41;100.00;96918.03;5040438;28;20842;-81
2023/11/09 00:04:51;;;;;;;15.57;8.80;;;;;;;2.36;100.00;96922.28;5039732;28;20903;-81
2023/11/09 00:07:19;;;;;;;14.10;7.70;;;;;;;2.35;100.00;96916.25;5038557;28;20460;-81
2023/11/09 00:09:45;;;;;;;14.93;8.20;;;;;;;2.31;100.00;96908.06;5039567;28;20403;-81
2023/11/09 00:12:11;;;;;;;16.48;8.18;;;;;;;2.28;100.00;96905.88;5039372;28;20403;-81
2023/11/09 00:14:37;;;;;;;13.07;7.57;;;;;;;2.23;100.00;96897.88;5038873;28;20395;-81
2023/11/09 00:17:05;;;;;;;20.35;8.60;;;;;;;2.23;100.00;96899.69;5039836;28;20478;-81
2023/11/09 00:19:31;;;;;;;12.27;7.40;;;;;;;2.23;100.00;96894.44;5039540;28;20422;-81
2023/11/09 00:21:57;;;;;;;12.65;7.47;;;;;;;2.21;100.00;96888.63;5038751;28;20395;-81
2023/11/09 00:24:24;;;;;;;12.10;7.72;;;;;;;2.18;100.00;96897.66;5039832;28;20490;-81
2023/11/09 00:26:51;;;;;;;14.02;7.75;;;;;;;2.16;100.00;96883.25;5040742;28;20405;-81
2023/11/09 00:29:17;;;;;;;13.75;7.45;;;;;;;2.15;100.00;96884.25;5048253;28;20435;-79
2023/11/09 00:31:44;;;;;;;13.43;8.02;;;;;;;2.14;100.00;96882.66;5048932;28;20414;-80
2023/11/09 00:34:11;;;;;;;15.00;8.03;;;;;;;2.12;100.00;96877.63;5029803;28;20496;-80
2023/11/09 00:36:37;;;;;;;14.23;8.30;;;;;;;2.11;100.00;96878.63;5025578;28;20427;-81
2023/11/09 00:39:04;;;;;;;15.05;8.30;;;;;;;2.10;100.00;96876.25;5019209;28;20416;-80
2023/11/09 00:41:30;;;;;;;15.03;8.10;;;;;;;2.08;100.00;96870.44;5019421;28;20964;-81
2023/11/09 00:43:57;;;;;;;12.48;7.57;;;;;;;2.08;100.00;96883.50;5024634;28;20445;-80
2023/11/09 00:46:23;;;;;;;15.02;8.65;;;;;;;2.08;100.00;96873.06;5038853;28;20395;-80
2023/11/09 00:48:49;;;;;;;14.52;8.30;;;;;;;2.11;100.00;96867.41;5038188;28;20407;-80
2023/11/09 00:51:18;;;;;;;15.50;8.07;;;;;;;2.11;100.00;96875.22;5038964;28;20477;-81
2023/11/09 00:53:44;;;;;;;16.08;8.52;;;;;;;2.11;100.00;96867.41;5022452;28;20406;-80
2023/11/09 00:56:10;;;;;;;16.27;8.88;;;;;;;2.12;100.00;96863.78;5038676;28;20423;-81
2023/11/09 00:58:36;;;;;;;13.75;7.90;;;;;;;2.13;100.00;96868.78;5038093;28;20418;-80
2023/11/09 01:01:03;;;;;;;18.60;8.93;;;;;;;2.19;100.00;96870.56;5038121;28;20415;-80
2023/11/09 01:03:29;;;;;;;15.95;9.48;;;;;;;2.22;100.00;96872.75;5037757;28;20498;-80
2023/11/09 01:05:57;;;;;;;16.65;8.43;;;;;;;2.27;100.00;96870.31;5038078;28;20426;-81
2023/11/09 01:08:25;;;;;;;20.33;9.77;;;;;;;2.28;100.00;96864.06;5038000;28;20434;-79
2023/11/09 01:10:51;;;;;;;20.58;9.60;;;;;;;2.33;100.00;96866.84;5037902;28;20394;-81
2023/11/09 01:13:17;;;;;;;18.50;9.75;;;;;;;2.37;100.00;96859.41;5038590;28;20426;-81
2023/11/09 01:15:43;;;;;;;16.10;8.68;;;;;;;2.41;100.00;96859.75;5037555;28;20407;-81
2023/11/09 01:18:11;;;;;;;16.10;8.50;;;;;;;2.44;100.00;96854.94;5038063;28;20437;-81
2023/11/09 01:20:37;;;;;;;17.33;8.55;;;;;;;2.47;100.00;96851.09;5037042;28;20410;-81
2023/11/09 01:23:06;;;;;;;17.05;8.63;;;;;;;2.51;100.00;96852.25;5037220;28;20391;-81
2023/11/09 01:25:34;;;;;;;17.58;9.50;;;;;;;2.55;100.00;96846.41;5038008;28;20406;-81
2023/11/09 01:28:02;;;;;;;16.60;8.63;;;;;;;2.58;100.00;96834.72;5037856;28;20438;-81
2023/11/09 01:30:29;;;;;;;16.25;8.68;;;;;;;2.60;100.00;96830.91;5037144;28;20895;-81
2023/11/09 01:32:56;;;;;;;15.88;8.60;;;;;;;2.62;100.00;96828.06;5030209;28;20400;-79
2023/11/09 01:35:23;;;;;;;13.00;7.68;;;;;;;2.62;100.00;96834.09;5019759;28;20522;-80
2023/11/09 01:37:49;;;;;;;13.40;8.05;;;;;;;2.63;100.00;96832.28;5020726;28;20798;-80
2023/11/09 01:40:15;;;;;;;12.52;7.75;;;;;;;2.63;100.00;96827.84;5019871;28;20404;-79
2023/11/09 01:42:43;;;;;;;16.98;8.93;;;;;;;2.64;100.00;96824.22;5020218;28;20397;-79
2023/11/09 01:45:10;;;;;;;16.05;8.43;;;;;;;2.66;100.00;96816.16;5035888;28;20445;-80
2023/11/09 01:47:37;;;;;;;16.02;8.93;;;;;;;2.66;100.00;96816.16;5039342;28;20406;-79
2023/11/09 01:50:05;;;;;;;13.35;8.05;;;;;;;2.65;100.00;96811.94;5040063;28;20391;-81
2023/11/09 01:52:32;;;;;;;15.10;7.72;;;;;;;2.61;100.00;96811.59;5039865;28;20402;-81
2023/11/09 01:54:59;;;;;;;11.50;6.80;;;;;;;2.58;100.00;96801.56;5039942;28;20399;-80
2023/11/09 01:57:25;;;;;;;13.25;7.07;;;;;;;2.54;100.00;96795.19;5039608;28;20481;-81
2023/11/09 01:59:53;;;;;;;14.05;7.47;;;;;;;2.51;100.00;96792.19;5040202;28;20434;-80
2023/11/09 02:02:22;;;;;;;12.80;6.55;;;;;;;2.46;100.00;96787.63;5040455;28;20868;-80
2023/11/09 02:04:48;;;;;;;13.23;7.18;;;;;;;2.46;100.00;96784.19;5039511;28;20399;-80
2023/11/09 02:07:16;;;;;;;13.48;7.80;;;;;;;2.46;100.00;96778.97;5039032;28;20395;-80
2023/11/09 02:09:42;;;;;;;15.52;7.80;;;;;;;2.48;100.00;96779.56;5039623;28;20898;-80
2023/11/09 02:12:09;;;;;;;13.77;7.70;;;;;;;2.49;100.00;96771.50;5039462;28;20434;-80
2023/11/09 02:14:35;;;;;;;16.70;8.30;;;;;;;2.50;100.00;96778.31;5039824;28;20433;-80
2023/11/09 02:17:05;;;;;;;17.45;9.00;;;;;;;2.53;100.00;96777.91;5039239;28;20418;-80
2023/11/09 02:19:31;;;;;;;18.17;9.48;;;;;;;2.62;100.00;96774.00;5039252;28;20415;-81
2023/11/09 02:21:59;;;;;;;15.48;9.10;;;;;;;2.64;100.00;96768.53;5039553;28;20406;-80
2023/11/09 02:24:26;;;;;;;16.20;8.57;;;;;;;2.72;100.00;96768.25;5042196;28;20808;-80
2023/11/09 02:26:55;;;;;;;13.63;7.80;;;;;;;2.77;100.00;96760.59;5039059;28;20441;-79
2023/11/09 02:29:21;;;;;;;20.30;9.75;;;;;;;2.79;100.00;96762.97;5039230;28;20430;-79
2023/11/09 02:31:47;;;;;;;16.77;8.30;;;;;;;2.84;100.00;96755.28;5038909;28;20395;-80
2023/11/09 02:34:19;;;;;;;16.23;8.70;;;;;;;2.88;100.00;96752.03;5038736;28;20410;-80
2023/11/09 02:36:45;;;;;;;15.35;8.38;;;;;;;2.94;100.00;96753.75;5039218;28;20542;-80
2023/11/09 02:39:12;;;;;;;17.77;9.00;;;;;;;2.91;100.00;96743.75;5038833;28;20449;-80
2023/11/09 02:41:40;;;;;;;16.73;8.77;;;;;;;2.95;100.00;96733.63;5038849;28;20416;-81
2023/11/09 02:44:07;;;;;;;15.93;8.43;;;;;;;2.95;100.00;96739.66;5039351;28;20399;-80
2023/11/09 02:46:34;;;;;;;13.75;8.10;;;;;;;2.87;100.00;96732.13;5038934;28;20429;-80
2023/11/09 02:49:00;;;;;;;12.52;6.97;;;;;;;2.83;100.00;96727.56;5039625;28;20414;-81
2023/11/09 02:51:26;;;;;;;14.05;7.80;;;;;;;2.78;100.00;96719.59;5043838;28;20493;-80
2023/11/09 02:53:55;;;;;;;11.43;6.95;;;;;;;2.66;100.00;96714.25;5038308;28;20725;-80
2023/11/09 02:56:21;;;;;;;10.70;6.88;;;;;;;2.69;100.00;96712.03;5038297;28;20436;-80
2023/11/09 02:58:49;;;;;;;13.73;7.60;;;;;;;2.69;100.00;96714.63;5038290;28;20414;-80
2023/11/09 03:01:17;;;;;;;14.18;7.68;;;;;;;2.67;100.00;96706.22;5038310;28;20417;-80
2023/11/09 03:03:43;;;;;;;13.52;7.10;;;;;;;2.71;100.00;96707.38;5038895;28;20475;-80
2023/11/09 03:06:11;;;;;;;15.47;7.83;;;;;;;2.72;100.00;96705.53;5038923;28;20391;-80
2023/11/09 03:08:37;;;;;;;11.77;6.85;;;;;;;2.75;100.00;96704.31;5039743;28;20443;-80
2023/11/09 03:11:04;;;;;;;11.02;6.68;;;;;;;2.71;100.00;96714.41;5040769;28;20395;-78
2023/11/09 03:13:34;;;;;;;10.63;6.30;;;;;;;2.66;100.00;96701.19;5038807;28;20875;-80
2023/11/09 03:16:01;;;;;;;9.45;6.10;;;;;;;2.60;100.00;96696.84;5038024;28;20582;-80
2023/11/09 03:18:27;;;;;;;8.88;5.53;;;;;;;2.56;100.00;96698.28;5038464;28;20433;-81
2023/11/09 03:20:54;;;;;;;10.57;6.05;;;;;;;2.52;100.00;96700.53;5037598;28;20391;-81
2023/11/09 03:23:20;;;;;;;10.80;6.68;;;;;;;2.54;100.00;96700.34;5040369;28;20399;-80
2023/11/09 03:25:46;;;;;;;12.20;7.55;;;;;;;2.56;100.00;96706.91;5038942;28;20399;-80
2023/11/09 03:28:13;;;;;;;9.88;6.30;;;;;;;2.57;100.00;96694.66;5037618;28;20810;-80
2023/11/09 03:30:39;;;;;;;9.90;5.70;;;;;;;2.54;100.00;96698.53;5037664;28;20399;-80
2023/11/09 03:33:06;;;;;;;9.77;5.73;;;;;;;2.53;100.00;96688.28;5037263;28;20399;-80
2023/11/09 03:35:32;;;;;;;10.93;6.25;;;;;;;2.47;100.00;96691.78;5037535;28;20959;-80
2023/11/09 03:37:58;;;;;;;9.45;5.72;;;;;;;2.43;100.00;96685.38;5037885;28;20395;-80
2023/11/09 03:40:25;;;;;;;9.45;5.88;;;;;;;2.39;100.00;96692.06;5037351;28;20404;-80
2023/11/09 03:42:52;;;;;;;9.32;5.72;;;;;;;2.36;100.00;96689.84;5037973;28;20415;-79
2023/11/09 03:45:18;;;;;;;9.07;5.80;;;;;;;2.29;100.00;96680.28;5037621;28;20403;-80
2023/11/09 03:47:44;;;;;;;16.20;7.57;;;;;;;2.19;100.00;96684.38;5037704;28;20399;-79
2023/11/09 03:50:12;;;;;;;8.95;5.80;;;;;;;2.18;100.00;96686.19;5037538;28;20457;-80
2023/11/09 03:52:39;;;;;;;12.23;6.50;;;;;;;2.16;100.00;96690.06;5037587;28;20876;-80
2023/11/09 03:55:07;;;;;;;10.45;5.93;;;;;;;2.12;100.00;96686.25;5040181;28;20413;-81
2023/11/09 03:57:35;;;;;;;9.07;5.68;;;;;;;2.09;100.00;96684.09;5037748;28;20401;-81
2023/11/09 04:00:03;;;;;;;10.30;5.80;;;;;;;2.04;100.00;96682.09;5038749;28;20506;-81
2023/11/09 04:02:29;;;;;;;8.57;5.75;;;;;;;2.03;100.00;96680.50;5038609;28;20402;-81
2023/11/09 04:04:55;;;;;;;9.07;5.65;;;;;;;2.01;100.00;96673.94;5038825;28;20395;-81
2023/11/09 04:07:22;;;;;;;9.85;5.55;;;;;;;1.99;100.00;96676.75;5039973;28;20399;-80
2023/11/09 04:09:48;;;;;;;9.48;5.85;;;;;;;1.99;100.00;96671.53;5041013;28;20406;-81
2023/11/09 04:12:15;;;;;;;9.95;6.07;;;;;;;1.96;100.00;96671.94;5040997;28;20868;-81
2023/11/09 04:14:41;;;;;;;13.65;5.95;;;;;;;1.95;100.00;96663.31;5041160;28;20403;-81
2023/11/09 04:17:07;;;;;;;9.77;5.80;;;;;;;1.94;100.00;96666.97;5041180;28;20399;-81
2023/11/09 04:19:34;;;;;;;8.68;5.40;;;;;;;1.94;100.00;96666.16;5040390;28;20403;-81
2023/11/09 04:22:00;;;;;;;12.87;6.13;;;;;;;1.94;100.00;96664.34;5040812;28;20964;-81
2023/11/09 04:24:29;;;;;;;9.50;5.82;;;;;;;1.94;100.00;96658.31;5040403;28;20771;-81
2023/11/09 04:26:55;;;;;;;11.27;6.00;;;;;;;1.94;100.00;96666.97;5040246;28;20418;-81
2023/11/09 04:29:21;;;;;;;14.90;6.60;;;;;;;1.92;100.00;96658.53;5038978;28;20434;-81
2023/11/09 04:31:47;;;;;;;15.00;6.95;;;;;;;1.93;100.00;96651.50;5040351;28;20803;-81
2023/11/09 04:34:14;;;;;;;15.00;7.37;;;;;;;1.94;100.00;96653.09;5022341;28;20495;-81
2023/11/09 04:36:44;;;;;;;11.90;6.72;;;;;;;1.95;100.00;96646.88;5019197;28;20423;-81
2023/11/09 04:39:10;;;;;;;12.80;6.45;;;;;;;1.95;100.00;96650.25;5020573;28;20920;-80
2023/11/09 04:41:39;;;;;;;14.05;6.97;;;;;;;1.95;100.00;96641.66;5021609;28;20403;-80
2023/11/09 04:44:08;;;;;;;11.43;6.57;;;;;;;1.96;100.00;96640.63;5028024;28;20403;-80
2023/11/09 04:46:40;;;;;;;12.60;6.60;;;;;;;1.97;100.00;96650.06;5039135;28;20453;-81
2023/11/09 04:49:07;;;;;;;11.25;6.22;;;;;;;1.98;100.00;96643.03;5022122;28;20405;-81
2023/11/09 04:51:35;;;;;;;10.88;6.30;;;;;;;1.97;100.00;96629.16;5019731;28;20405;-81
2023/11/09 04:54:16;;;;;;;10.97;6.63;;;;;;;2.00;100.00;96627.97;5020097;28;20471;-81
2023/11/09 05:07:25;;;;;;;13.43;7.30;;;;;;;2.06;100.00;96612.22;5016805;28;20448;-80
2023/11/09 05:09:52;;;;;;;13.90;7.28;;;;;;;2.05;100.00;96607.22;5021492;28;20404;-81
2023/11/09 05:12:19;;;;;;;16.63;8.20;;;;;;;2.06;100.00;96608.81;5017545;28;20400;-80
2023/11/09 05:14:46;;;;;;;13.63;7.68;;;;;;;2.07;100.00;96608.59;5015929;28;20401;-79
2023/11/09 05:17:15;;;;;;;12.32;7.03;;;;;;;2.09;100.00;96611.00;5024052;28;20451;-80
2023/11/09 05:19:41;;;;;;;15.18;7.68;;;;;;;2.10;100.00;96608.19;5037383;28;20549;-80
2023/11/09 05:22:10;;;;;;;16.83;7.78;;;;;;;2.11;100.00;96598.50;5030956;28;20400;-79
2023/11/09 05:24:37;;;;;;;13.75;7.75;;;;;;;2.10;100.00;96589.91;5027791;28;20486;-80
2023/11/09 05:27:04;;;;;;;13.75;7.47;;;;;;;2.10;100.00;96597.75;5027001;28;20411;-79
2023/11/09 05:29:31;;;;;;;15.18;7.70;;;;;;;2.09;100.00;96596.16;5024427;28;20400;-79
2023/11/09 05:31:57;;;;;;;14.33;7.67;;;;;;;2.10;100.00;96602.97;5026241;28;20399;-81
2023/11/09 05:34:24;;;;;;;12.45;6.97;;;;;;;2.13;100.00;96593.88;5026409;28;20775;-79
2023/11/09 05:36:50;;;;;;;12.13;6.95;;;;;;;2.14;100.00;96598.09;5024494;28;20403;-79
2023/11/09 05:39:18;;;;;;;15.55;7.00;;;;;;;2.15;100.00;96591.84;5025002;28;20414;-79
2023/11/09 05:41:45;;;;;;;11.30;6.80;;;;;;;2.17;100.00;96593.25;5025458;28;20426;-79
2023/11/09 05:44:11;;;;;;;12.13;6.50;;;;;;;2.19;100.00;96587.78;5025105;28;20512;-79
2023/11/09 05:46:39;;;;;;;11.43;6.70;;;;;;;2.19;100.00;96596.41;5024792;28;20424;-79
2023/11/09 05:49:05;;;;;;;12.38;7.35;;;;;;;2.19;100.00;96587.78;5019654;28;20557;-79
2023/11/09 05:51:31;;;;;;;13.30;6.70;;;;;;;2.22;100.00;96590.78;5021979;28;20889;-77
2023/11/09 05:53:57;;;;;;;14.77;7.05;;;;;;;2.24;100.00;96596.59;5027495;28;20403;-77
2023/11/09 05:56:24;;;;;;;11.30;5.80;;;;;;;2.30;100.00;96597.53;5034131;28;20472;-78
2023/11/09 05:58:50;;;;;;;13.35;6.63;;;;;;;2.32;100.00;96595.50;5031908;28;20549;-79
2023/11/09 06:01:18;;;;;;;9.73;5.80;;;;;;;2.37;100.00;96597.44;5032774;28;20423;-78
2023/11/09 06:03:45;;;;;;;9.90;5.68;;;;;;;2.40;100.00;96595.22;5032981;28;20405;-78
2023/11/09 06:06:12;;;;;;;8.13;5.70;;;;;;;2.42;100.00;96593.16;5035397;28;20411;-77
2023/11/09 06:08:38;;;;;;;10.20;5.30;;;;;;;2.45;100.00;96587.50;5029619;28;20411;-78
2023/11/09 06:11:04;;;;;;;10.07;5.65;;;;;;;2.48;100.00;96589.66;5015727;28;20453;-85
2023/11/09 06:13:31;;;;;;;10.82;5.68;;;;;;;2.52;100.00;96595.25;5006355;28;20436;-83
2023/11/09 06:15:57;;;;;;;9.77;5.72;;;;;;;2.56;100.00;96588.56;4999910;28;20408;-79
2023/11/09 06:18:24;;;;;;;9.40;5.30;;;;;;;2.61;100.00;96596.56;5016735;28;20774;-79
2023/11/09 06:20:53;;;;;;;9.43;5.60;;;;;;;2.63;100.00;96599.75;5022143;28;20853;-82
2023/11/09 06:23:19;;;;;;;7.93;5.38;;;;;;;2.65;100.00;96595.09;5039315;28;20477;-82
2023/11/09 06:25:45;;;;;;;10.32;5.63;;;;;;;2.69;100.00;96597.06;5030393;28;20432;-80
2023/11/09 06:28:12;;;;;;;7.70;5.20;;;;;;;2.70;100.00;96595.25;5027041;28;20483;-79
2023/11/09 06:30:39;;;;;;;9.07;5.45;;;;;;;2.71;100.00;96595.00;5039173;28;20395;-80
2023/11/09 06:33:05;;;;;;;9.93;4.97;;;;;;;2.71;100.00;96597.63;5042012;28;20847;-80
2023/11/09 06:35:32;;;;;;;7.53;4.90;;;;;;;2.73;100.00;96606.03;5042071;28;20422;-79
2023/11/09 06:37:59;;;;;;;12.43;6.22;;;;;;;2.73;100.00;96597.41;5041910;28;20486;-80
2023/11/09 06:40:30;;;;;;;7.43;5.10;;;;;;;2.75;100.00;96598.00;5023170;28;20463;-83
2023/11/09 06:42:56;;;;;;;8.02;5.00;;;;;;;2.80;100.00;96602.53;5025520;28;20403;-81
2023/11/09 06:45:23;;;;;;;7.50;5.10;;;;;;;2.81;100.00;96599.72;5042854;28;20912;-81
2023/11/09 06:47:49;;;;;;;7.25;4.70;;;;;;;2.84;100.00;96601.91;5032289;28;20405;-81
2023/11/09 06:50:19;;;;;;;8.00;4.57;;;;;;;2.88;100.00;96597.81;5022781;28;20405;-81
2023/11/09 06:52:46;;;;;;;7.63;5.15;;;;;;;2.91;100.00;96601.81;5040212;28;20441;-81
2023/11/09 06:55:17;;;;;;;7.68;5.00;;;;;;;2.97;100.00;96593.88;5037356;28;20503;-81
2023/11/09 06:57:45;;;;;;;6.72;4.55;;;;;;;3.05;100.00;96595.38;5032325;28;20483;-81
2023/11/09 07:00:13;;;;;;;6.70;4.60;;;;;;;3.11;100.00;96597.88;5045211;28;20822;-81
2023/11/09 07:02:40;;;;;;;6.60;4.32;;;;;;;3.17;100.00;96598.00;5044376;28;20406;-81
2023/11/09 07:05:07;;;;;;;7.15;4.35;;;;;;;3.24;100.00;96593.47;5038260;28;20493;-81
2023/11/09 07:07:33;;;;;;;6.43;4.65;;;;;;;3.31;100.00;96596.78;5043478;28;20399;-81
2023/11/09 07:10:00;;;;;;;6.07;4.10;;;;;;;3.37;100.00;96604.56;5023911;28;20405;-81
2023/11/09 07:12:28;;;;;;;5.57;4.00;;;;;;;3.44;100.00;96594.00;5029548;28;20462;-81
2023/11/09 07:14:54;;;;;;;5.55;4.15;;;;;;;3.50;100.00;96590.47;5043741;28;20456;-80
2023/11/09 07:17:20;;;;;;;5.45;4.03;;;;;;;3.56;100.00;96591.38;5038148;28;20410;-81
2023/11/09 07:19:48;;;;;;;6.63;4.10;;;;;;;3.62;100.00;96593.88;5041913;28;20446;-80
2023/11/09 07:22:14;;;;;;;6.65;4.50;;;;;;;3.67;100.00;96596.66;5033262;28;20423;-80
2023/11/09 07:24:41;;;;;;;5.68;4.10;;;;;;;3.72;100.00;96593.34;5021010;28;20405;-81
2023/11/09 07:27:09;;;;;;;6.50;4.28;;;;;;;3.74;100.00;96604.38;5033805;28;20395;-84
2023/11/09 07:29:37;;;;;;;5.13;3.67;;;;;;;3.77;100.00;96601.28;5041105;28;20396;-80
2023/11/09 07:32:03;;;;;;;4.90;3.50;;;;;;;3.79;100.00;96610.53;5045603;28;20403;-80
2023/11/09 07:34:30;;;;;;;6.72;4.35;;;;;;;3.82;100.00;96607.47;5029346;28;20391;-80
2023/11/09 07:36:57;;;;;;;5.63;3.78;;;;;;;3.87;100.00;96612.81;5039189;28;20431;-80
2023/11/09 07:39:27;;;;;;;12.27;3.65;;;;;;;3.91;100.00;96615.75;5024326;28;20425;-79
2023/11/09 07:41:54;;;;;;;5.38;3.83;;;;;;;4.00;100.00;96606.53;5036903;28;20490;-79
2023/11/09 07:44:21;;;;;;;7.07;4.73;;;;;;;4.11;100.00;96602.34;5024797;28;20410;-81
2023/11/09 07:46:49;;;;;;;9.10;5.35;;;;;;;4.19;100.00;96605.41;5039535;28;20411;-80
2023/11/09 07:49:15;;;;;;;7.90;4.38;;;;;;;4.42;100.00;96601.16;5039276;28;20407;-80
2023/11/09 07:51:43;;;;;;;6.32;4.03;;;;;;;4.52;100.00;96601.34;5036374;28;20410;-80
2023/11/09 07:54:10;;;;;;;6.85;3.83;;;;;;;4.56;100.00;96592.81;5038340;28;20402;-81
2023/11/09 07:56:36;;;;;;;4.95;3.60;;;;;;;4.62;100.00;96612.84;5038102;28;20395;-80
2023/11/09 07:59:03;;;;;;;4.90;3.38;;;;;;;4.67;100.00;96602.44;5032465;28;20429;-80
2023/11/09 08:01:29;;;;;;;4.63;3.07;;;;;;;4.74;100.00;96601.50;5035749;28;20395;-80
2023/11/09 08:03:57;;;;;;;5.38;3.20;;;;;;;4.77;100.00;96601.84;5034787;28;20397;-80
2023/11/09 08:06:23;;;;;;;5.72;3.10;;;;;;;4.84;100.00;96594.66;5034984;28;20391;-81
2023/11/09 08:08:53;;;;;;;4.13;3.20;;;;;;;4.96;100.00;96600.63;5037481;28;20434;-81
2023/11/09 08:11:20;;;;;;;4.85;3.40;;;;;;;5.05;100.00;96590.56;5035298;28;20435;-80
2023/11/09 08:13:49;;;;;;;3.05;2.60;;;;;;;5.12;100.00;96585.97;5032516;28;20498;-80
2023/11/09 08:16:16;;;;;;;4.75;3.10;;;;;;;5.13;100.00;96592.81;5038511;28;20404;-80
2023/11/09 08:18:43;;;;;;;5.13;3.38;;;;;;;5.21;100.00;96591.63;5035750;28;20780;-81
2023/11/09 08:21:10;;;;;;;6.60;3.90;;;;;;;5.32;100.00;96594.22;5035872;28;20895;-81
2023/11/09 08:23:36;;;;;;;4.05;3.03;;;;;;;5.55;100.00;96600.34;5035510;28;20407;-81
2023/11/09 08:26:04;;;;;;;3.92;2.58;;;;;;;5.63;100.00;96595.50;5034816;28;20408;-80
2023/11/09 08:28:30;;;;;;;4.17;3.17;;;;;;;5.71;100.00;96602.94;5040140;28;20438;-79
2023/11/09 08:30:58;;;;;;;3.42;2.97;;;;;;;5.81;100.00;96605.75;5041681;28;20783;-79
2023/11/09 08:33:24;;;;;;;4.90;2.83;;;;;;;5.86;100.00;96606.88;5029432;28;20397;-79
2023/11/09 08:35:53;;;;;;;2.92;2.67;;;;;;;6.01;100.00;96615.00;5023974;28;21089;-82
2023/11/09 08:38:22;;;;;;;4.57;3.00;;;;;;;6.15;100.00;96617.06;5023857;28;20411;-81
2023/11/09 08:40:49;;;;;;;3.13;2.72;;;;;;;6.21;100.00;96610.84;5025397;28;20401;-80
2023/11/09 08:43:16;;;;;;;3.38;2.60;;;;;;;6.27;100.00;96616.94;5043806;28;20430;-79
2023/11/09 08:45:43;;;;;;;5.30;3.33;;;;;;;6.15;100.00;96616.25;5043930;28;20503;-81
2023/11/09 08:48:12;;;;;;;5.38;3.22;;;;;;;6.25;100.00;96615.59;5043690;28;20403;-81
2023/11/09 08:50:40;;;;;;;6.15;3.40;;;;;;;6.09;100.00;96614.59;5041277;28;20409;-80
2023/11/09 08:53:07;;;;;;;6.57;3.65;;;;;;;6.24;100.00;96620.03;5044121;28;20395;-80
2023/11/09 08:55:35;;;;;;;9.27;4.00;;;;;;;6.16;100.00;96610.75;5041974;28;20540;-79
2023/11/09 08:58:01;;;;;;;4.50;3.30;;;;;;;6.30;100.00;96608.59;5043252;28;20437;-79
2023/11/09 09:00:32;;;;;;;4.13;3.30;;;;;;;6.40;100.00;96607.91;5041018;28;20414;-79
2023/11/09 09:02:58;;;;;;;5.57;3.05;;;;;;;6.41;100.00;96610.28;5038789;28;20399;-78
2023/11/09 09:05:26;;;;;;;5.00;3.25;;;;;;;6.30;100.00;96611.22;5042288;28;20423;-79
2023/11/09 09:07:53;;;;;;;3.25;2.83;;;;;;;6.39;100.00;96604.47;5042469;28;21081;-80
2023/11/09 09:10:23;;;;;;;4.65;2.85;;;;;;;6.30;100.00;96595.44;5036156;28;20907;-80
2023/11/09 09:12:51;;;;;;;3.60;3.00;;;;;;;6.39;100.00;96601.84;5037573;28;20879;-81
2023/11/09 09:15:18;;;;;;;4.63;2.80;;;;;;;6.36;100.00;96591.03;5038054;28;20486;-79
2023/11/09 09:17:45;;;;;;;5.10;3.30;;;;;;;6.39;100.00;96583.44;5038275;28;20416;-78
2023/11/09 09:20:15;;;;;;;3.90;3.08;;;;;;;6.36;100.00;96589.22;5039482;28;20787;-79
2023/11/09 09:22:43;;;;;;;4.25;3.20;;;;;;;6.37;100.00;96590.00;5039274;28;20399;-82
2023/11/09 09:25:12;;;;;;;3.95;2.88;;;;;;;6.38;100.00;96583.72;5040213;28;20401;-81
2023/11/09 09:27:42;;;;;;;7.32;3.25;;;;;;;6.28;100.00;96580.94;5040262;28;20403;-81
2023/11/09 09:30:13;;;;;;;5.65;3.30;;;;;;;6.36;100.00;96591.03;5040357;28;20403;-80
2023/11/09 09:32:40;;;;;;;5.60;2.87;;;;;;;6.50;100.00;96582.56;5034963;28;20392;-79
2023/11/09 09:35:07;;;;;;;4.05;2.80;;;;;;;6.57;100.00;96579.75;5039421;28;20402;-78
2023/11/09 09:37:37;;;;;;;3.90;2.67;;;;;;;6.58;100.00;96571.63;5037189;28;20429;-78
2023/11/09 09:40:09;;;;;;;2.95;2.58;;;;;;;6.74;100.00;96577.03;5035986;28;20439;-79
2023/11/09 09:42:35;;;;;;;5.90;2.80;;;;;;;6.72;100.00;96577.28;5036640;28;20560;-80
2023/11/09 09:45:03;;;;;;;4.03;2.90;;;;;;;6.75;100.00;96568.13;5040487;28;20433;-78
2023/11/09 09:47:31;;;;;;;3.28;2.60;;;;;;;6.87;100.00;96574.81;5041938;28;20415;-78
2023/11/09 09:49:57;;;;;;;3.42;2.53;;;;;;;6.97;100.00;96567.06;5041638;28;20402;-79
2023/11/09 09:52:24;;;;;;;3.67;2.50;;;;;;;7.04;100.00;96566.84;5040957;28;20418;-80
2023/11/09 09:54:50;;;;;;;2.45;2.22;;;;;;;7.11;100.00;96572.72;5046449;28;20427;-80
2023/11/09 09:57:17;;;;;;;3.28;2.30;;;;;;;7.14;100.00;96569.56;5047433;28;20395;-80
2023/11/09 09:59:44;;;;;;;4.13;2.50;;;;;;;7.10;100.00;96567.69;5046088;28;20761;-79
2023/11/09 10:02:13;;;;;;;5.75;2.40;;;;;;;6.99;100.00;96569.44;5043653;28;20395;-80
2023/11/09 10:04:40;;;;;;;3.15;2.33;;;;;;;7.27;100.00;96573.66;5042002;28;20482;-80
2023/11/09 10:07:08;;;;;;;4.18;2.40;;;;;;;7.22;100.00;96571.75;5047148;28;20751;-80
2023/11/09 10:09:36;;;;;;;3.83;2.30;;;;;;;7.20;100.00;96565.16;5046420;28;20406;-80
2023/11/09 10:12:09;;;;;;;3.67;2.20;;;;;;;7.45;100.00;96562.72;5049525;28;20541;-80
2023/11/09 10:14:35;;;;;;;3.35;2.47;;;;;;;7.43;100.00;96554.31;5047707;28;20872;-79
2023/11/09 10:17:03;;;;;;;5.28;2.40;;;;;;;7.45;100.00;96546.94;5047252;28;20395;-79
2023/11/09 10:19:40;;;;;;;3.30;1.90;;;;;;;7.56;100.00;96551.25;5046807;28;20414;-80
2023/11/09 10:22:08;;;;;;;2.00;1.73;;;;;;;7.73;100.00;96544.00;5047764;28;20537;-80
2023/11/09 10:24:37;;;;;;;2.40;1.90;;;;;;;7.89;100.00;96544.91;5048036;28;20399;-80
2023/11/09 10:27:07;;;;;;;2.65;1.88;;;;;;;8.05;100.00;96537.84;5048558;28;20411;-80
2023/11/09 10:29:34;;;;;;;2.20;1.80;;;;;;;8.15;100.00;96543.97;5048545;28;20414;-83
2023/11/09 10:32:00;;;;;;;2.15;1.80;;;;;;;8.21;100.00;96521.06;5048599;28;20459;-80
2023/11/09 10:34:26;;;;;;;5.32;2.03;;;;;;;8.27;100.00;96524.53;5044984;28;20405;-80
2023/11/09 10:36:56;;;;;;;2.70;1.77;;;;;;;8.33;100.00;96526.19;5044767;28;20634;-79
2023/11/09 10:39:24;;;;;;;2.60;1.73;;;;;;;8.26;100.00;96522.94;5044229;28;20513;-80
2023/11/09 10:41:52;;;;;;;1.75;1.65;;;;;;;8.33;100.00;96520.91;5044521;28;20860;-80
2023/11/09 10:44:22;;;;;;;2.78;1.55;;;;;;;8.42;100.00;96524.63;5045132;28;20399;-79
2023/11/09 10:46:53;;;;;;;2.53;1.70;;;;;;;8.42;100.00;96509.59;5046852;28;20399;-80
2023/11/09 10:49:23;;;;;;;3.23;1.70;;;;;;;8.48;100.00;96507.78;5022938;28;20401;-80
2023/11/09 10:51:54;;;;;;;2.50;1.70;;;;;;;8.49;100.00;96515.41;5020296;28;20396;-80
2023/11/09 10:54:27;;;;;;;2.58;1.67;;;;;;;8.52;100.00;96511.47;5032666;28;20456;-79
2023/11/09 10:57:00;;;;;;;2.38;1.88;;;;;;;8.63;100.00;96507.81;5045528;28;20458;-79
2023/11/09 10:59:26;;;;;;;2.35;1.70;;;;;;;8.77;100.00;96518.66;5045334;28;20458;-80
2023/11/09 11:01:57;;;;;;;2.75;1.50;;;;;;;8.93;100.00;96509.75;5045008;28;20407;-78
2023/11/09 11:04:26;;;;;;;2.33;1.40;;;;;;;9.60;100.00;96509.50;5046163;28;20483;-79
2023/11/09 11:06:56;;;;;;;4.05;1.38;;;;;;;10.18;100.00;96512.56;5042191;28;20435;-80
2023/11/09 11:09:27;;;;;;;2.70;1.70;;;;;;;11.07;100.00;96503.66;5045112;28;20403;-79
2023/11/09 11:12:01;;;;;;;3.20;1.30;;;;;;;11.52;100.00;96499.06;5044524;28;20399;-79
2023/11/09 11:14:32;;;;;;;2.42;1.20;;;;;;;11.40;100.00;96502.09;5043187;28;20868;-79
2023/11/09 11:17:32;;;;;;;3.75;1.35;;;;;;;11.44;100.00;96497.03;5027883;28;20502;-79
2023/11/09 11:20:31;;;;;;;3.63;1.23;;;;;;;11.35;100.00;96504.78;5044885;28;20771;-79
2023/11/09 11:23:20;;;;;;;1.38;1.15;;;;;;;11.04;100.00;96495.50;5043469;28;20411;-79
2023/11/09 11:25:56;;;;;;;1.50;1.27;;;;;;;10.64;100.00;96497.31;4983847;28;20474;-82
2023/11/09 11:28:26;;;;;;;1.92;1.42;;;;;;;10.40;100.00;96497.16;5045407;28;20429;-79
2023/11/09 11:30:52;;;;;;;4.10;1.58;;;;;;;10.14;100.00;96493.00;5045426;28;20437;-79
2023/11/09 11:33:21;;;;;;;1.40;1.23;;;;;;;10.00;100.00;96489.31;5035275;28;20401;-79
2023/11/09 11:35:51;;;;;;;1.92;1.20;;;;;;;9.81;100.00;96488.31;5024693;28;20801;-79
2023/11/09 11:38:23;;;;;;;1.63;1.20;;;;;;;9.79;100.00;96483.28;5026081;28;20401;-80
2023/11/09 11:41:02;;;;;;;1.55;1.40;;;;;;;9.52;100.00;96485.47;5023717;28;20458;-79
2023/11/09 11:43:36;;;;;;;1.75;1.23;;;;;;;9.51;100.00;96492.59;5027066;28;20395;-79